sensor_id;sensor_type;location;lat;lon;timestamp;pressure;altitude;pressure_sealevel;temperature;humidity
49030;BME280;43337;52.070;4.508;2022-09-20T00:02:24;102456.34;;;11.98;83.85
49030;BME280;43337;52.070;4.508;2022-09-20T00:04:49;102430.13;;;11.91;84.13
49030;BME280;43337;52.070;4.508;2022-09-20T00:07:15;102470.06;;;12.14;84.13
49030;BME280;43337;52.070;4.508;2022-09-20T00:09:40;102461.22;;;12.17;84.14
49030;BME280;43337;52.070;4.508;2022-09-20T00:12:06;102460.31;;;12.18;84.19
49030;BME280;43337;52.070;4.508;2022-09-20T00:14:31;102438.66;;;12.04;84.29
49030;BME280;43337;52.070;4.508;2022-09-20T00:16:57;102455.13;;;12.15;84.04
49030;BME280;43337;52.070;4.508;2022-09-20T00:19:22;102456.97;;;12.11;84.28
49030;BME280;43337;52.070;4.508;2022-09-20T00:21:47;102454.44;;;12.05;84.35
49030;BME280;43337;52.070;4.508;2022-09-20T00:24:13;102491.97;;;12.19;84.59
49030;BME280;43337;52.070;4.508;2022-09-20T00:26:38;102495.53;;;12.18;84.63
49030;BME280;43337;52.070;4.508;2022-09-20T00:29:04;102451.94;;;11.99;84.82
49030;BME280;43337;52.070;4.508;2022-09-20T00:31:30;102478.91;;;12.13;84.82
49030;BME280;43337;52.070;4.508;2022-09-20T00:33:56;102464.94;;;12.08;85.34
49030;BME280;43337;52.070;4.508;2022-09-20T00:36:41;102474.72;;;12.05;84.61
49030;BME280;43337;52.070;4.508;2022-09-20T00:39:10;102438.97;;;11.90;85.46
49030;BME280;43337;52.070;4.508;2022-09-20T00:41:35;102439.81;;;11.92;85.86
49030;BME280;43337;52.070;4.508;2022-09-20T00:44:01;102438.09;;;11.89;86.13
49030;BME280;43337;52.070;4.508;2022-09-20T00:46:37;102450.28;;;11.95;86.13
49030;BME280;43337;52.070;4.508;2022-09-20T00:51:38;102424.22;;;11.78;86.31
49030;BME280;43337;52.070;4.508;2022-09-20T00:54:06;102444.34;;;11.84;86.50
49030;BME280;43337;52.070;4.508;2022-09-20T00:56:37;102438.41;;;11.74;86.74
49030;BME280;43337;52.070;4.508;2022-09-20T00:59:13;102406.38;;;11.51;87.12
49030;BME280;43337;52.070;4.508;2022-09-20T01:01:42;102440.22;;;11.70;87.20
49030;BME280;43337;52.070;4.508;2022-09-20T01:04:08;102439.25;;;11.76;87.18
49030;BME280;43337;52.070;4.508;2022-09-20T01:06:34;102420.97;;;11.67;87.64
49030;BME280;43337;52.070;4.508;2022-09-20T01:09:01;102440.16;;;11.73;87.60
49030;BME280;43337;52.070;4.508;2022-09-20T01:11:29;102424.53;;;11.64;87.82
49030;BME280;43337;52.070;4.508;2022-09-20T01:13:55;102449.88;;;11.71;87.83
49030;BME280;43337;52.070;4.508;2022-09-20T01:16:27;102453.38;;;11.73;88.02
49030;BME280;43337;52.070;4.508;2022-09-20T01:18:57;102436.94;;;11.61;88.35
49030;BME280;43337;52.070;4.508;2022-09-20T01:21:25;102462.19;;;11.72;88.16
49030;BME280;43337;52.070;4.508;2022-09-20T01:26:54;102469.03;;;11.80;88.54
49030;BME280;43337;52.070;4.508;2022-09-20T01:32:02;102458.59;;;11.75;88.58
49030;BME280;43337;52.070;4.508;2022-09-20T01:34:34;102464.63;;;11.82;88.30
49030;BME280;43337;52.070;4.508;2022-09-20T01:37:15;102456.69;;;11.82;88.58
49030;BME280;43337;52.070;4.508;2022-09-20T01:42:13;102441.03;;;11.74;88.75
49030;BME280;43337;52.070;4.508;2022-09-20T02:15:35;102430.88;;;11.56;88.92
49030;BME280;43337;52.070;4.508;2022-09-20T02:18:13;102437.84;;;11.58;89.37
49030;BME280;43337;52.070;4.508;2022-09-20T02:20:55;102431.78;;;11.55;89.29
49030;BME280;43337;52.070;4.508;2022-09-20T02:23:39;102436.19;;;11.54;89.19
49030;BME280;43337;52.070;4.508;2022-09-20T02:40:50;102440.59;;;11.52;89.68
49030;BME280;43337;52.070;4.508;2022-09-20T02:46:19;102438.00;;;11.51;89.71
49030;BME280;43337;52.070;4.508;2022-09-20T02:49:09;102431.03;;;11.48;89.60
49030;BME280;43337;52.070;4.508;2022-09-20T02:51:57;102446.84;;;11.48;89.96
49030;BME280;43337;52.070;4.508;2022-09-20T02:54:36;102441.56;;;11.48;89.82
49030;BME280;43337;52.070;4.508;2022-09-20T02:57:38;102438.19;;;11.43;89.77
49030;BME280;43337;52.070;4.508;2022-09-20T03:00:23;102428.53;;;11.42;89.72
49030;BME280;43337;52.070;4.508;2022-09-20T03:03:12;102438.19;;;11.43;89.94
49030;BME280;43337;52.070;4.508;2022-09-20T03:06:19;102440.00;;;11.39;89.92
49030;BME280;43337;52.070;4.508;2022-09-20T03:08:57;102430.38;;;11.37;90.09
49030;BME280;43337;52.070;4.508;2022-09-20T03:14:10;102433.97;;;11.33;89.82
49030;BME280;43337;52.070;4.508;2022-09-20T03:17:00;102439.28;;;11.31;89.95
49030;BME280;43337;52.070;4.508;2022-09-20T03:25:07;102441.13;;;11.28;89.53
49030;BME280;43337;52.070;4.508;2022-09-20T03:28:02;102441.13;;;11.28;89.91
49030;BME280;43337;52.070;4.508;2022-09-20T03:44:58;102456.78;;;11.35;90.37
49030;BME280;43337;52.070;4.508;2022-09-20T03:50:07;102434.97;;;11.27;90.53
49030;BME280;43337;52.070;4.508;2022-09-20T03:52:55;102452.34;;;11.37;90.37
49030;BME280;43337;52.070;4.508;2022-09-20T03:55:35;102447.97;;;11.38;90.44
49030;BME280;43337;52.070;4.508;2022-09-20T04:01:15;102441.06;;;11.29;90.45
49030;BME280;43337;52.070;4.508;2022-09-20T04:03:56;102432.34;;;11.27;90.51
49030;BME280;43337;52.070;4.508;2022-09-20T04:06:52;102458.50;;;11.38;90.17
49030;BME280;43337;52.070;4.508;2022-09-20T04:21:23;102454.16;;;11.35;90.17
49030;BME280;43337;52.070;4.508;2022-09-20T04:26:37;102438.50;;;11.26;90.11
49030;BME280;43337;52.070;4.508;2022-09-20T04:29:39;102452.41;;;11.34;90.07
49030;BME280;43337;52.070;4.508;2022-09-20T04:37:55;102460.34;;;11.33;90.37
49030;BME280;43337;52.070;4.508;2022-09-20T04:54:52;102466.28;;;11.44;90.25
49030;BME280;43337;52.070;4.508;2022-09-20T05:00:40;102451.41;;;11.40;90.29
49030;BME280;43337;52.070;4.508;2022-09-20T05:03:49;102468.84;;;11.47;90.46
49030;BME280;43337;52.070;4.508;2022-09-20T05:14:18;102465.31;;;11.49;90.41
49030;BME280;43337;52.070;4.508;2022-09-20T05:17:19;102449.63;;;11.40;90.48
49030;BME280;43337;52.070;4.508;2022-09-20T05:28:24;102468.75;;;11.52;90.78
49030;BME280;43337;52.070;4.508;2022-09-20T05:36:10;102469.56;;;11.55;91.07
49030;BME280;43337;52.070;4.508;2022-09-20T05:38:59;102473.94;;;11.56;91.10
49030;BME280;43337;52.070;4.508;2022-09-20T05:41:29;102478.34;;;11.57;91.05
49030;BME280;43337;52.070;4.508;2022-09-20T05:44:10;102460.03;;;11.49;91.25
49030;BME280;43337;52.070;4.508;2022-09-20T05:49:40;102480.88;;;11.62;91.21
49030;BME280;43337;52.070;4.508;2022-09-20T05:52:25;102472.91;;;11.63;91.30
49030;BME280;43337;52.070;4.508;2022-09-20T06:00:49;102471.19;;;11.62;91.29
49030;BME280;43337;52.070;4.508;2022-09-20T06:03:28;102474.59;;;11.67;91.71
49030;BME280;43337;52.070;4.508;2022-09-20T06:09:14;102466.81;;;11.61;91.59
49030;BME280;43337;52.070;4.508;2022-09-20T06:15:10;102493.91;;;11.68;91.79
49030;BME280;43337;52.070;4.508;2022-09-20T06:17:49;102493.00;;;11.70;91.64
49030;BME280;43337;52.070;4.508;2022-09-20T06:23:02;102459.13;;;11.51;91.73
49030;BME280;43337;52.070;4.508;2022-09-20T06:25:55;102498.97;;;11.80;92.05
49030;BME280;43337;52.070;4.508;2022-09-20T06:28:32;102501.50;;;11.86;92.03
49030;BME280;43337;52.070;4.508;2022-09-20T06:30:58;102477.88;;;11.79;92.26
49030;BME280;43337;52.070;4.508;2022-09-20T06:33:26;102505.63;;;11.98;92.13
49030;BME280;43337;52.070;4.508;2022-09-20T06:36:13;102491.56;;;11.97;92.21
49030;BME280;43337;52.070;4.508;2022-09-20T06:42:05;102502.53;;;12.19;92.42
49030;BME280;43337;52.070;4.508;2022-09-20T06:44:31;102504.16;;;12.25;92.44
49030;BME280;43337;52.070;4.508;2022-09-20T06:46:56;102497.09;;;12.27;92.29
49030;BME280;43337;52.070;4.508;2022-09-20T06:49:22;102502.22;;;12.33;92.46
49030;BME280;43337;52.070;4.508;2022-09-20T06:51:48;102505.63;;;12.38;92.38
49030;BME280;43337;52.070;4.508;2022-09-20T06:54:19;102509.97;;;12.41;92.40
49030;BME280;43337;52.070;4.508;2022-09-20T06:56:46;102508.97;;;12.45;92.36
49030;BME280;43337;52.070;4.508;2022-09-20T06:59:13;102508.00;;;12.49;92.54
49030;BME280;43337;52.070;4.508;2022-09-20T07:01:39;102511.44;;;12.53;92.35
49030;BME280;43337;52.070;4.508;2022-09-20T07:04:05;102519.28;;;12.57;92.30
49030;BME280;43337;52.070;4.508;2022-09-20T07:06:35;102512.16;;;12.59;92.37
49030;BME280;43337;52.070;4.508;2022-09-20T07:09:01;102497.31;;;12.55;92.22
49030;BME280;43337;52.070;4.508;2022-09-20T07:11:26;102464.25;;;12.39;92.11
49030;BME280;43337;52.070;4.508;2022-09-20T07:13:53;102508.59;;;12.62;91.92
49030;BME280;43337;52.070;4.508;2022-09-20T07:16:20;102495.31;;;12.65;91.98
49030;BME280;43337;52.070;4.508;2022-09-20T07:18:46;102499.63;;;12.67;91.96
49030;BME280;43337;52.070;4.508;2022-09-20T07:21:14;102507.50;;;12.70;91.76
49030;BME280;43337;52.070;4.508;2022-09-20T07:23:40;102503.13;;;12.69;91.83
49030;BME280;43337;52.070;4.508;2022-09-20T07:26:11;102515.22;;;12.78;91.50
49030;BME280;43337;52.070;4.508;2022-09-20T07:28:40;102516.16;;;12.76;91.29
49030;BME280;43337;52.070;4.508;2022-09-20T07:31:05;102492.88;;;12.56;91.42
49030;BME280;43337;52.070;4.508;2022-09-20T07:33:31;102517.28;;;12.67;90.87
49030;BME280;43337;52.070;4.508;2022-09-20T07:35:56;102517.25;;;12.68;90.75
49030;BME280;43337;52.070;4.508;2022-09-20T07:38:22;102493.84;;;12.52;90.60
49030;BME280;43337;52.070;4.508;2022-09-20T07:40:55;102517.28;;;12.67;90.49
49030;BME280;43337;52.070;4.508;2022-09-20T07:43:22;102517.28;;;12.67;90.36
49030;BME280;43337;52.070;4.508;2022-09-20T07:45:49;102524.19;;;12.73;90.35
49030;BME280;43337;52.070;4.508;2022-09-20T07:48:20;102539.81;;;12.82;90.23
49030;BME280;43337;52.070;4.508;2022-09-20T07:50:54;102530.28;;;12.76;90.04
49030;BME280;43337;52.070;4.508;2022-09-20T07:53:20;102539.16;;;12.74;89.76
49030;BME280;43337;52.070;4.508;2022-09-20T07:58:28;102555.69;;;12.82;89.27
49030;BME280;43337;52.070;4.508;2022-09-20T08:00:55;102562.69;;;12.84;89.04
49030;BME280;43337;52.070;4.508;2022-09-20T08:03:21;102557.34;;;12.86;88.65
49030;BME280;43337;52.070;4.508;2022-09-20T08:05:48;102554.03;;;12.78;88.39
49030;BME280;43337;52.070;4.508;2022-09-20T08:08:17;102560.91;;;12.85;88.05
49030;BME280;43337;52.070;4.508;2022-09-20T08:10:44;102570.50;;;12.87;87.63
49030;BME280;43337;52.070;4.508;2022-09-20T08:13:11;102568.78;;;12.86;87.11
49030;BME280;43337;52.070;4.508;2022-09-20T08:15:37;102564.41;;;12.85;86.86
49030;BME280;43337;52.070;4.508;2022-09-20T08:18:03;102566.13;;;12.88;86.18
49030;BME280;43337;52.070;4.508;2022-09-20T08:20:28;102543.69;;;12.68;85.78
49030;BME280;43337;52.070;4.508;2022-09-20T08:22:54;102562.69;;;12.83;85.32
49030;BME280;43337;52.070;4.508;2022-09-20T08:25:20;102527.09;;;12.62;84.84
49030;BME280;43337;52.070;4.508;2022-09-20T08:27:52;102529.56;;;12.69;84.44
49030;BME280;43337;52.070;4.508;2022-09-20T08:30:17;102569.69;;;12.85;84.44
49030;BME280;43337;52.070;4.508;2022-09-20T08:32:43;102577.50;;;12.90;83.95
49030;BME280;43337;52.070;4.508;2022-09-20T08:35:08;102573.09;;;12.90;83.94
49030;BME280;43337;52.070;4.508;2022-09-20T08:37:34;102548.81;;;12.75;83.71
49030;BME280;43337;52.070;4.508;2022-09-20T08:39:59;102578.22;;;12.97;83.58
49030;BME280;43337;52.070;4.508;2022-09-20T08:42:34;102564.28;;;12.90;83.61
49030;BME280;43337;52.070;4.508;2022-09-20T08:45:13;102581.63;;;13.02;83.46
49030;BME280;43337;52.070;4.508;2022-09-20T08:48:00;102595.38;;;13.16;83.60
49030;BME280;43337;52.070;4.508;2022-09-20T08:50:26;102576.16;;;13.09;83.58
49030;BME280;43337;52.070;4.508;2022-09-20T08:52:56;102583.72;;;13.25;83.38
49030;BME280;43337;52.070;4.508;2022-09-20T08:55:26;102587.81;;;13.36;83.35
49030;BME280;43337;52.070;4.508;2022-09-20T08:57:57;102596.44;;;13.44;83.45
49030;BME280;43337;52.070;4.508;2022-09-20T09:00:25;102580.53;;;13.46;83.09
49030;BME280;43337;52.070;4.508;2022-09-20T09:02:56;102576.03;;;13.50;82.88
49030;BME280;43337;52.070;4.508;2022-09-20T09:05:37;102588.75;;;13.68;82.98
49030;BME280;43337;52.070;4.508;2022-09-20T09:08:37;102588.63;;;13.73;82.54
49030;BME280;43337;52.070;4.508;2022-09-20T09:11:14;102590.94;;;13.85;82.42
49030;BME280;43337;52.070;4.508;2022-09-20T09:13:53;102601.31;;;13.92;82.40
49030;BME280;43337;52.070;4.508;2022-09-20T09:16:22;102601.09;;;14.00;82.40
49030;BME280;43337;52.070;4.508;2022-09-20T09:18:48;102601.81;;;14.07;82.15
49030;BME280;43337;52.070;4.508;2022-09-20T09:21:23;102590.28;;;14.08;82.16
49030;BME280;43337;52.070;4.508;2022-09-20T09:24:16;102599.44;;;14.26;82.19
49030;BME280;43337;52.070;4.508;2022-09-20T09:26:43;102583.53;;;14.27;82.50
49030;BME280;43337;52.070;4.508;2022-09-20T09:29:16;102598.09;;;14.42;82.29
49030;BME280;43337;52.070;4.508;2022-09-20T09:31:42;102605.66;;;14.56;82.09
49030;BME280;43337;52.070;4.508;2022-09-20T09:34:30;102607.16;;;14.64;82.08
49030;BME280;43337;52.070;4.508;2022-09-20T09:36:56;102584.28;;;14.60;81.84
49030;BME280;43337;52.070;4.508;2022-09-20T09:39:33;102604.13;;;14.77;81.42
49030;BME280;43337;52.070;4.508;2022-09-20T09:42:18;102606.31;;;14.90;81.20
49030;BME280;43337;52.070;4.508;2022-09-20T09:44:44;102594.81;;;14.92;81.25
49030;BME280;43337;52.070;4.508;2022-09-20T09:47:27;102594.25;;;15.08;81.00
49030;BME280;43337;52.070;4.508;2022-09-20T09:49:57;102590.31;;;15.20;80.09
49030;BME280;43337;52.070;4.508;2022-09-20T09:52:23;102591.84;;;15.27;80.03
49030;BME280;43337;52.070;4.508;2022-09-20T09:54:53;102598.44;;;15.41;79.55
49030;BME280;43337;52.070;4.508;2022-09-20T10:00:19;102598.66;;;15.61;77.70
49030;BME280;43337;52.070;4.508;2022-09-20T10:02:59;102594.66;;;15.48;77.14
49030;BME280;43337;52.070;4.508;2022-09-20T10:11:13;102600.31;;;15.12;76.52
49030;BME280;43337;52.070;4.508;2022-09-20T10:19:19;102629.22;;;14.93;76.03
49030;BME280;43337;52.070;4.508;2022-09-20T10:27:37;102624.81;;;14.65;76.16
49030;BME280;43337;52.070;4.508;2022-09-20T10:30:17;102622.19;;;14.64;76.50
49030;BME280;43337;52.070;4.508;2022-09-20T10:32:57;102620.44;;;14.64;76.59
49030;BME280;43337;52.070;4.508;2022-09-20T10:35:31;102612.31;;;14.69;76.99
49030;BME280;43337;52.070;4.508;2022-09-20T10:40:53;102629.13;;;14.96;76.33
49030;BME280;43337;52.070;4.508;2022-09-20T10:47:04;102616.69;;;15.25;76.83
49030;BME280;43337;52.070;4.508;2022-09-20T10:55:19;102611.97;;;15.59;75.93
49030;BME280;43337;52.070;4.508;2022-09-20T10:58:14;102616.88;;;15.72;76.18
49030;BME280;43337;52.070;4.508;2022-09-20T11:09:06;102614.59;;;16.09;75.20
49030;BME280;43337;52.070;4.508;2022-09-20T11:11:41;102595.16;;;16.09;74.57
49030;BME280;43337;52.070;4.508;2022-09-20T11:14:20;102620.22;;;16.25;74.47
49030;BME280;43337;52.070;4.508;2022-09-20T11:16:53;102616.28;;;16.35;74.67
49030;BME280;43337;52.070;4.508;2022-09-20T11:19:25;102597.88;;;16.31;74.10
49030;BME280;43337;52.070;4.508;2022-09-20T11:21:59;102610.13;;;16.35;73.10
49030;BME280;43337;52.070;4.508;2022-09-20T11:24:32;102620.34;;;16.22;72.68
49030;BME280;43337;52.070;4.508;2022-09-20T11:27:05;102609.38;;;16.08;72.26
49030;BME280;43337;52.070;4.508;2022-09-20T11:29:40;102589.13;;;15.80;72.26
49030;BME280;43337;52.070;4.508;2022-09-20T11:32:24;102619.03;;;15.85;72.26
49030;BME280;43337;52.070;4.508;2022-09-20T11:34:55;102602.09;;;15.63;72.01
49030;BME280;43337;52.070;4.508;2022-09-20T11:37:29;102604.94;;;15.58;72.34
49030;BME280;43337;52.070;4.508;2022-09-20T11:40:00;102616.50;;;15.56;72.40
49030;BME280;43337;52.070;4.508;2022-09-20T11:42:32;102612.03;;;15.58;72.45
49030;BME280;43337;52.070;4.508;2022-09-20T11:44:59;102604.69;;;15.66;72.59
49030;BME280;43337;52.070;4.508;2022-09-20T11:47:30;102621.59;;;15.89;72.46
49030;BME280;43337;52.070;4.508;2022-09-20T11:58:11;102631.13;;;15.94;71.67
49030;BME280;43337;52.070;4.508;2022-09-20T12:00:39;102615.63;;;15.82;71.24
49030;BME280;43337;52.070;4.508;2022-09-20T12:03:28;102612.22;;;15.78;71.55
49030;BME280;43337;52.070;4.508;2022-09-20T12:06:01;102629.59;;;15.87;71.32
49030;BME280;43337;52.070;4.508;2022-09-20T12:08:34;102627.28;;;15.78;71.56
49030;BME280;43337;52.070;4.508;2022-09-20T12:13:30;102628.50;;;15.68;71.03
49030;BME280;43337;52.070;4.508;2022-09-20T12:16:17;102623.16;;;15.69;71.19
49030;BME280;43337;52.070;4.508;2022-09-20T12:19:02;102646.03;;;15.73;71.30
49030;BME280;43337;52.070;4.508;2022-09-20T12:21:28;102632.16;;;15.63;71.17
49030;BME280;43337;52.070;4.508;2022-09-20T12:28:54;102605.28;;;15.48;70.54
49030;BME280;43337;52.070;4.508;2022-09-20T12:33:56;102642.38;;;15.76;70.06
49030;BME280;43337;52.070;4.508;2022-09-20T12:36:22;102637.84;;;15.79;69.96
49030;BME280;43337;52.070;4.508;2022-09-20T12:38:54;102600.91;;;15.73;69.59
49030;BME280;43337;52.070;4.508;2022-09-20T12:41:20;102612.91;;;15.83;69.18
49030;BME280;43337;52.070;4.508;2022-09-20T12:43:56;102628.66;;;16.13;69.03
49030;BME280;43337;52.070;4.508;2022-09-20T12:46:31;102610.81;;;16.17;68.95
49030;BME280;43337;52.070;4.508;2022-09-20T12:49:22;102619.91;;;16.33;69.06
49030;BME280;43337;52.070;4.508;2022-09-20T13:00:41;102625.34;;;16.77;67.64
49030;BME280;43337;52.070;4.508;2022-09-20T13:08:40;102628.75;;;16.80;66.38
49030;BME280;43337;52.070;4.508;2022-09-20T13:11:19;102615.50;;;16.79;66.32
49030;BME280;43337;52.070;4.508;2022-09-20T13:13:57;102616.06;;;16.87;66.44
49030;BME280;43337;52.070;4.508;2022-09-20T13:16:31;102619.88;;;17.02;66.50
49030;BME280;43337;52.070;4.508;2022-09-20T13:19:23;102617.63;;;17.15;66.51
49030;BME280;43337;52.070;4.508;2022-09-20T13:24:18;102620.16;;;17.38;66.71
49030;BME280;43337;52.070;4.508;2022-09-20T13:26:46;102621.34;;;17.51;65.93
49030;BME280;43337;52.070;4.508;2022-09-20T13:29:27;102603.56;;;17.52;66.07
49030;BME280;43337;52.070;4.508;2022-09-20T13:31:54;102600.44;;;17.63;65.09
49030;BME280;43337;52.070;4.508;2022-09-20T13:34:22;102617.38;;;17.82;64.65
49030;BME280;43337;52.070;4.508;2022-09-20T13:36:52;102598.00;;;17.78;64.43
49030;BME280;43337;52.070;4.508;2022-09-20T13:39:24;102584.81;;;17.75;63.98
49030;BME280;43337;52.070;4.508;2022-09-20T13:41:51;102607.13;;;17.93;63.06
49030;BME280;43337;52.070;4.508;2022-09-20T13:44:18;102589.47;;;17.70;62.21
49030;BME280;43337;52.070;4.508;2022-09-20T13:46:44;102604.72;;;17.67;62.19
49030;BME280;43337;52.070;4.508;2022-09-20T13:51:35;102598.34;;;17.30;62.20
49030;BME280;43337;52.070;4.508;2022-09-20T13:54:36;102620.75;;;17.45;63.30
49030;BME280;43337;52.070;4.508;2022-09-20T13:57:04;102622.19;;;17.53;62.27
49030;BME280;43337;52.070;4.508;2022-09-20T13:59:34;102621.09;;;17.57;61.43
49030;BME280;43337;52.070;4.508;2022-09-20T14:02:04;102614.75;;;17.60;61.06
49030;BME280;43337;52.070;4.508;2022-09-20T14:04:30;102617.16;;;17.66;59.96
49030;BME280;43337;52.070;4.508;2022-09-20T14:06:57;102601.31;;;17.63;59.82
49030;BME280;43337;52.070;4.508;2022-09-20T14:09:31;102599.47;;;17.65;58.99
49030;BME280;43337;52.070;4.508;2022-09-20T14:11:58;102594.34;;;17.61;58.78
49030;BME280;43337;52.070;4.508;2022-09-20T14:14:24;102620.25;;;17.77;58.38
49030;BME280;43337;52.070;4.508;2022-09-20T14:16:52;102611.41;;;17.77;58.59
49030;BME280;43337;52.070;4.508;2022-09-20T14:19:20;102608.66;;;17.78;58.86
49030;BME280;43337;52.070;4.508;2022-09-20T14:21:47;102612.19;;;17.79;58.44
49030;BME280;43337;52.070;4.508;2022-09-20T14:26:42;102614.81;;;17.80;58.01
49030;BME280;43337;52.070;4.508;2022-09-20T14:29:43;102609.53;;;17.79;57.30
49030;BME280;43337;52.070;4.508;2022-09-20T14:37:25;102606.84;;;17.79;56.71
49030;BME280;43337;52.070;4.508;2022-09-20T14:40:16;102571.56;;;17.53;57.12
49030;BME280;43337;52.070;4.508;2022-09-20T14:43:04;102588.50;;;17.71;57.20
49030;BME280;43337;52.070;4.508;2022-09-20T14:45:36;102587.47;;;17.75;57.15
49030;BME280;43337;52.070;4.508;2022-09-20T14:50:37;102595.59;;;17.93;57.76
49030;BME280;43337;52.070;4.508;2022-09-20T14:55:30;102586.06;;;17.87;57.42
49030;BME280;43337;52.070;4.508;2022-09-20T14:58:14;102598.97;;;17.96;55.55
49030;BME280;43337;52.070;4.508;2022-09-20T15:00:50;102604.44;;;17.93;56.52
49030;BME280;43337;52.070;4.508;2022-09-20T15:03:24;102596.66;;;17.89;56.82
49030;BME280;43337;52.070;4.508;2022-09-20T15:05:50;102560.22;;;17.69;57.19
49030;BME280;43337;52.070;4.508;2022-09-20T15:08:15;102600.19;;;17.89;57.57
49030;BME280;43337;52.070;4.508;2022-09-20T15:10:44;102570.94;;;17.67;57.61
49030;BME280;43337;52.070;4.508;2022-09-20T15:13:12;102595.13;;;17.83;57.98
49030;BME280;43337;52.070;4.508;2022-09-20T15:15:38;102553.66;;;17.57;58.41
49030;BME280;43337;52.070;4.508;2022-09-20T15:18:11;102603.00;;;17.86;58.59
49030;BME280;43337;52.070;4.508;2022-09-20T15:20:49;102598.72;;;17.82;58.52
49030;BME280;43337;52.070;4.508;2022-09-20T15:23:14;102585.72;;;17.74;58.83
49030;BME280;43337;52.070;4.508;2022-09-20T15:25:39;102608.41;;;17.85;59.12
49030;BME280;43337;52.070;4.508;2022-09-20T15:28:05;102599.81;;;17.78;58.92
49030;BME280;43337;52.070;4.508;2022-09-20T15:30:32;102593.69;;;17.76;58.19
49030;BME280;43337;52.070;4.508;2022-09-20T15:32:57;102590.59;;;17.65;58.14
49030;BME280;43337;52.070;4.508;2022-09-20T15:35:23;102582.78;;;17.60;58.31
49030;BME280;43337;52.070;4.508;2022-09-20T15:37:48;102562.91;;;17.48;58.28
49030;BME280;43337;52.070;4.508;2022-09-20T15:40:13;102564.34;;;17.55;58.53
49030;BME280;43337;52.070;4.508;2022-09-20T15:42:39;102584.22;;;17.69;58.88
49030;BME280;43337;52.070;4.508;2022-09-20T15:45:10;102597.28;;;17.75;58.35
49030;BME280;43337;52.070;4.508;2022-09-20T15:47:39;102593.72;;;17.74;58.41
49030;BME280;43337;52.070;4.508;2022-09-20T15:50:06;102553.06;;;17.50;58.12
49030;BME280;43337;52.070;4.508;2022-09-20T15:52:37;102568.69;;;17.58;58.12
49030;BME280;43337;52.070;4.508;2022-09-20T15:55:04;102593.84;;;17.71;58.28
49030;BME280;43337;52.070;4.508;2022-09-20T15:57:31;102585.00;;;17.71;58.23
49030;BME280;43337;52.070;4.508;2022-09-20T15:59:56;102566.28;;;17.52;57.77
49030;BME280;43337;52.070;4.508;2022-09-20T16:02:23;102587.34;;;17.58;58.02
49030;BME280;43337;52.070;4.508;2022-09-20T16:04:48;102596.06;;;17.62;58.63
49030;BME280;43337;52.070;4.508;2022-09-20T16:07:19;102592.59;;;17.60;58.86
49030;BME280;43337;52.070;4.508;2022-09-20T16:09:50;102578.69;;;17.53;59.13
49030;BME280;43337;52.070;4.508;2022-09-20T16:12:15;102590.94;;;17.57;58.98
49030;BME280;43337;52.070;4.508;2022-09-20T16:14:41;102589.06;;;17.59;58.83
49030;BME280;43337;52.070;4.508;2022-09-20T16:17:06;102597.13;;;17.57;59.12
49030;BME280;43337;52.070;4.508;2022-09-20T16:19:31;102576.63;;;17.39;58.85
49030;BME280;43337;52.070;4.508;2022-09-20T16:21:57;102603.03;;;17.44;58.79
49030;BME280;43337;52.070;4.508;2022-09-20T16:24:27;102606.72;;;17.41;58.66
49030;BME280;43337;52.070;4.508;2022-09-20T16:26:53;102602.72;;;17.31;59.34
49030;BME280;43337;52.070;4.508;2022-09-20T16:29:19;102612.56;;;17.29;59.18
49030;BME280;43337;52.070;4.508;2022-09-20T16:31:47;102591.25;;;17.08;59.05
49030;BME280;43337;52.070;4.508;2022-09-20T16:34:22;102592.28;;;17.04;59.57
49030;BME280;43337;52.070;4.508;2022-09-20T16:36:52;102597.81;;;17.00;59.94
49030;BME280;43337;52.070;4.508;2022-09-20T16:39:25;102601.47;;;16.97;60.04
49030;BME280;43337;52.070;4.508;2022-09-20T16:41:53;102625.28;;;17.00;60.25
49030;BME280;43337;52.070;4.508;2022-09-20T16:44:21;102621.22;;;16.92;60.24
49030;BME280;43337;52.070;4.508;2022-09-20T16:46:46;102575.50;;;16.58;60.30
49030;BME280;43337;52.070;4.508;2022-09-20T16:49:12;102613.97;;;16.72;60.62
49030;BME280;43337;52.070;4.508;2022-09-20T16:51:40;102633.34;;;16.77;60.53
49030;BME280;43337;52.070;4.508;2022-09-20T16:54:07;102622.34;;;16.63;60.47
49030;BME280;43337;52.070;4.508;2022-09-20T16:56:44;102615.78;;;16.49;60.96
49030;BME280;43337;52.070;4.508;2022-09-20T16:59:11;102630.91;;;16.47;60.94
49030;BME280;43337;52.070;4.508;2022-09-20T17:01:38;102641.47;;;16.49;60.68
49030;BME280;43337;52.070;4.508;2022-09-20T17:04:05;102613.13;;;16.26;60.70
49030;BME280;43337;52.070;4.508;2022-09-20T17:06:32;102626.63;;;16.20;61.13
49030;BME280;43337;52.070;4.508;2022-09-20T17:08:59;102649.41;;;16.27;61.26
49030;BME280;43337;52.070;4.508;2022-09-20T17:11:28;102627.03;;;16.09;61.54
49030;BME280;43337;52.070;4.508;2022-09-20T17:13:54;102615.16;;;15.94;61.55
49030;BME280;43337;52.070;4.508;2022-09-20T17:16:22;102649.31;;;16.05;61.66
49030;BME280;43337;52.070;4.508;2022-09-20T17:18:52;102648.69;;;15.98;61.68
49030;BME280;43337;52.070;4.508;2022-09-20T17:21:19;102613.31;;;15.73;61.57
49030;BME280;43337;52.070;4.508;2022-09-20T17:23:45;102652.00;;;15.80;61.94
49030;BME280;43337;52.070;4.508;2022-09-20T17:26:18;102648.59;;;15.76;62.18
49030;BME280;43337;52.070;4.508;2022-09-20T17:28:45;102658.56;;;15.70;62.53
49030;BME280;43337;52.070;4.508;2022-09-20T17:31:13;102649.09;;;15.61;62.60
49030;BME280;43337;52.070;4.508;2022-09-20T17:33:39;102653.66;;;15.57;62.62
49030;BME280;43337;52.070;4.508;2022-09-20T17:36:06;102648.75;;;15.45;62.68
49030;BME280;43337;52.070;4.508;2022-09-20T17:38:33;102635.00;;;15.32;62.85